createdAt,value
2023-03-23T00:00:35.684Z,99.9
2023-03-23T00:02:35.310Z,99.9
2023-03-23T00:04:34.949Z,99.9
2023-03-23T00:06:38.015Z,99.9
2023-03-23T00:16:36.177Z,99.9
2023-03-23T00:20:38.865Z,99.9
2023-03-23T00:22:38.516Z,99.9
2023-03-23T00:26:48.266Z,99.9
2023-03-23T00:30:37.100Z,99.9
2023-03-23T00:32:36.745Z,99.9
2023-03-23T00:34:39.776Z,99.9
2023-03-23T00:36:39.432Z,99.9
2023-03-23T00:41:00.238Z,99.9
2023-03-23T00:53:01.516Z,99.9
2023-03-23T00:55:01.156Z,99.9
2023-03-23T00:57:00.799Z,99.9
2023-03-23T00:59:00.499Z,99.9
2023-03-23T01:01:03.526Z,99.9
2023-03-23T01:03:03.163Z,99.9
2023-03-23T01:09:02.110Z,99.9
2023-03-23T01:11:01.754Z,99.9
2023-03-23T01:15:04.474Z,99.9
2023-03-23T01:17:04.114Z,99.9
2023-03-23T01:21:03.379Z,99.9
2023-03-23T01:33:04.688Z,99.9
2023-03-23T01:34:06.193Z,99.9
2023-03-23T01:36:05.843Z,99.9
2023-03-23T01:44:07.867Z,99.9
2023-03-23T01:48:07.194Z,99.9
2023-03-23T01:50:06.835Z,99.9
2023-03-23T01:52:06.497Z,99.9
2023-03-23T01:54:06.161Z,99.9
2023-03-23T01:56:09.217Z,99.9
2023-03-23T01:58:08.867Z,99.9
2023-03-23T02:00:08.483Z,99.9
2023-03-23T02:02:08.114Z,99.9
2023-03-23T02:04:07.813Z,99.9
2023-03-23T02:06:07.454Z,99.9
2023-03-23T02:10:10.140Z,99.9
2023-03-23T02:14:09.388Z,99.9
2023-03-23T02:16:09.013Z,99.9
2023-03-23T02:22:07.948Z,99.9
2023-03-23T02:24:11.079Z,99.9
2023-03-23T02:28:10.434Z,99.9
2023-03-23T02:29:11.891Z,99.9
2023-03-23T02:35:10.830Z,99.9
2023-03-23T02:51:14.806Z,99.9
2023-03-23T03:01:12.996Z,99.9
2023-03-23T03:03:12.643Z,99.9
2023-03-23T03:05:15.692Z,99.9
2023-03-23T03:07:15.332Z,99.9
2023-03-23T03:09:14.939Z,99.9
2023-03-23T03:11:14.584Z,99.9
2023-03-23T03:13:14.204Z,99.9
2023-03-23T03:15:13.848Z,99.9
2023-03-23T03:19:17.346Z,99.9
2023-03-23T03:21:16.147Z,99.9
2023-03-23T03:23:15.751Z,99.9
2023-03-23T03:24:17.272Z,99.9
2023-03-23T03:28:16.495Z,99.9
2023-03-23T03:30:16.096Z,99.9
2023-03-23T03:32:19.147Z,99.9
2023-03-23T03:36:18.440Z,99.9
2023-03-23T03:38:18.015Z,99.9
2023-03-23T03:40:19.173Z,99.9
2023-03-23T03:42:18.774Z,99.9
2023-03-23T03:46:21.405Z,99.9
2023-03-23T03:48:21.056Z,99.9
2023-03-23T03:54:19.946Z,99.9
2023-03-23T03:56:19.544Z,99.9
2023-03-23T03:58:19.212Z,99.9
2023-03-23T04:00:22.213Z,99.9
2023-03-23T04:02:21.835Z,99.9
2023-03-23T04:06:21.065Z,99.9
2023-03-23T04:10:32.798Z,99.9
2023-03-23T04:12:19.977Z,99.9
2023-03-23T04:14:22.998Z,99.9
2023-03-23T04:16:22.653Z,99.9
2023-03-23T04:20:43.771Z,99.9
2023-03-23T04:22:43.373Z,99.9
2023-03-23T04:32:44.852Z,99.9
2023-03-23T04:36:56.975Z,99.9
2023-03-23T04:38:43.726Z,99.9
2023-03-23T04:40:46.737Z,99.9
2023-03-23T04:42:46.373Z,99.9
2023-03-23T04:44:45.998Z,99.9
2023-03-23T04:54:47.458Z,99.9
2023-03-23T04:56:47.089Z,99.9
2023-03-23T04:58:46.671Z,99.9
2023-03-23T05:00:46.308Z,99.9
2023-03-23T05:02:45.912Z,99.9
2023-03-23T05:08:48.180Z,99.9
2023-03-23T05:10:47.789Z,99.9
2023-03-23T05:12:47.431Z,99.9
2023-03-23T05:13:48.952Z,99.9
2023-03-23T05:15:50.503Z,99.9
2023-03-23T05:17:48.170Z,99.9
2023-03-23T05:19:47.808Z,99.9
2023-03-23T05:27:49.657Z,99.9
2023-03-23T05:35:51.625Z,99.9
2023-03-23T05:41:50.411Z,99.9
2023-03-23T05:43:50.009Z,99.9
2023-03-23T05:47:49.279Z,99.9
2023-03-23T05:49:52.344Z,99.9
2023-03-23T05:57:50.829Z,99.9
2023-03-23T05:59:50.439Z,99.9
2023-03-23T06:01:50.069Z,99.9
2023-03-23T06:03:53.099Z,99.9
2023-03-23T06:07:52.346Z,99.9
2023-03-23T06:08:51.736Z,99.9
2023-03-23T06:12:50.981Z,99.9
2023-03-23T06:16:53.685Z,99.9
2023-03-23T06:22:52.582Z,99.9
2023-03-23T06:28:51.405Z,99.9
2023-03-23T06:30:54.446Z,99.9
2023-03-23T06:32:54.070Z,99.9
2023-03-23T06:36:53.338Z,99.9
2023-03-23T06:48:54.580Z,99.9
2023-03-23T06:50:54.190Z,99.9
2023-03-23T06:52:53.836Z,99.9
2023-03-23T06:54:53.494Z,99.9
2023-03-23T06:56:53.145Z,99.9
2023-03-23T06:58:56.192Z,99.9
2023-03-23T07:00:55.863Z,99.9
2023-03-23T07:02:55.488Z,99.9
2023-03-23T07:03:57.023Z,99.9
2023-03-23T07:09:56.041Z,99.9
2023-03-23T07:13:58.730Z,99.9
2023-03-23T07:15:58.391Z,99.9
2023-03-23T07:17:58.025Z,99.9
2023-03-23T07:23:57.005Z,99.9
2023-03-23T07:26:00.049Z,99.9
2023-03-23T07:29:59.377Z,99.9
2023-03-23T07:33:58.706Z,99.9
2023-03-23T07:35:58.383Z,99.9
2023-03-23T07:37:57.998Z,99.9
2023-03-23T07:40:01.092Z,99.9
2023-03-23T07:42:00.665Z,99.9
2023-03-23T07:44:00.350Z,99.9
2023-03-23T07:45:59.957Z,99.9
2023-03-23T07:48:00.783Z,99.9
2023-03-23T07:51:58.930Z,99.9
2023-03-23T07:56:01.666Z,99.9
2023-03-23T07:58:01.341Z,99.9
2023-03-23T08:00:23.103Z,99.9
2023-03-23T08:02:22.775Z,99.9
2023-03-23T08:04:22.405Z,99.9
2023-03-23T08:06:25.470Z,99.9
2023-03-23T08:08:25.150Z,99.9
2023-03-23T08:12:24.450Z,99.9
2023-03-23T08:16:23.713Z,99.9
2023-03-23T08:18:23.387Z,99.9
2023-03-23T08:20:26.384Z,99.9
2023-03-23T08:22:26.010Z,99.9
2023-03-23T08:30:24.635Z,99.9
2023-03-23T08:32:24.289Z,99.9
2023-03-23T08:34:27.303Z,99.9
2023-03-23T08:36:26.969Z,99.9
2023-03-23T08:38:26.618Z,99.9
2023-03-23T08:40:26.280Z,99.9
2023-03-23T08:42:26.084Z,99.9
2023-03-23T08:46:25.483Z,99.9
2023-03-23T08:48:28.210Z,99.9
2023-03-23T08:50:27.884Z,99.9
2023-03-23T08:52:27.523Z,99.9
2023-03-23T08:53:29.056Z,99.9
2023-03-23T08:55:28.713Z,99.9
2023-03-23T08:57:28.337Z,99.9
2023-03-23T08:59:27.987Z,99.9
2023-03-23T09:01:31.070Z,99.9
2023-03-23T09:03:30.680Z,99.9
2023-03-23T09:05:30.303Z,99.9
2023-03-23T09:07:29.979Z,99.9
2023-03-23T09:09:29.600Z,99.9
2023-03-23T09:11:29.262Z,99.9
2023-03-23T09:15:34.093Z,99.9
2023-03-23T09:17:31.558Z,99.9
2023-03-23T09:19:31.203Z,99.9
2023-03-23T09:21:30.878Z,99.9
2023-03-23T09:23:30.486Z,99.9
2023-03-23T09:25:31.670Z,99.9
2023-03-23T09:33:33.557Z,99.9
2023-03-23T09:35:33.235Z,99.9
2023-03-23T09:37:32.826Z,99.9
2023-03-23T09:39:32.450Z,99.9
2023-03-23T09:41:32.055Z,99.9
2023-03-23T09:43:35.082Z,99.9
2023-03-23T09:45:34.719Z,99.9
2023-03-23T09:47:34.241Z,99.9
2023-03-23T09:48:35.740Z,99.9
2023-03-23T09:50:35.344Z,99.9
2023-03-23T09:52:34.900Z,99.9
2023-03-23T09:54:34.460Z,99.9
2023-03-23T09:56:37.392Z,99.9
2023-03-23T09:58:36.992Z,99.9
2023-03-23T10:00:36.590Z,99.9
2023-03-23T10:02:36.104Z,99.9
2023-03-23T10:04:35.633Z,99.9
2023-03-23T10:06:35.173Z,99.9
2023-03-23T10:08:34.746Z,99.9
2023-03-23T10:12:37.220Z,99.9
2023-03-23T10:14:36.753Z,99.8
2023-03-23T10:18:35.790Z,99
2023-03-23T10:24:37.615Z,99.2
2023-03-23T10:26:37.112Z,99.4
2023-03-23T10:28:36.630Z,99.8
2023-03-23T10:30:36.139Z,99.4
2023-03-23T10:34:35.124Z,99.4
2023-03-23T10:36:34.601Z,99.4
2023-03-23T10:40:37.008Z,97.8
2023-03-23T10:42:36.484Z,96.2
2023-03-23T10:43:37.957Z,96.1
2023-03-23T10:45:37.449Z,96.1
2023-03-23T10:47:36.924Z,95.7
2023-03-23T10:49:36.395Z,92.6
2023-03-23T11:07:37.143Z,86.4
2023-03-23T11:09:36.504Z,86.2
2023-03-23T11:11:35.772Z,86.4
2023-03-23T11:13:35.102Z,84.4
2023-03-23T11:15:34.391Z,83.6
2023-03-23T11:17:33.713Z,82.8
2023-03-23T11:19:36.299Z,81.9
2023-03-23T11:21:35.615Z,81.1
2023-03-23T11:29:32.922Z,80.6
2023-03-23T11:31:31.957Z,80.5
2023-03-23T11:33:35.561Z,80.7
2023-03-23T11:35:33.849Z,80.8
2023-03-23T11:37:33.110Z,80.4
2023-03-23T11:39:54.050Z,80.9
2023-03-23T11:42:00.259Z,81
2023-03-23T11:43:52.623Z,81.1
2023-03-23T11:45:55.355Z,81.2
2023-03-23T11:47:54.647Z,80.5
2023-03-23T11:51:53.414Z,80
2023-03-23T11:53:52.740Z,81.9
2023-03-23T11:55:52.234Z,83.2
2023-03-23T11:57:51.671Z,84.1
2023-03-23T11:59:54.538Z,86.2
2023-03-23T12:03:53.474Z,86.9
2023-03-23T12:05:52.998Z,86.3
2023-03-23T12:07:52.452Z,84.6
2023-03-23T12:09:51.859Z,83.1
2023-03-23T12:13:56.825Z,82.5
2023-03-23T12:23:51.545Z,79.5
2023-03-23T12:27:53.928Z,78.9
2023-03-23T12:32:54.103Z,81.5
2023-03-23T12:38:52.321Z,82.8
2023-03-23T12:40:56.213Z,94.2
2023-03-23T12:42:54.698Z,99.6
2023-03-23T12:48:53.155Z,99.8
2023-03-23T12:50:52.678Z,99.8
2023-03-23T12:52:52.216Z,99.8
2023-03-23T12:54:55.162Z,99.9
2023-03-23T12:58:54.229Z,99.6
2023-03-23T13:02:53.317Z,99.3
2023-03-23T13:04:52.863Z,99.3
2023-03-23T13:06:52.380Z,99.2
2023-03-23T13:08:55.320Z,99.1
2023-03-23T13:10:54.829Z,99.1
2023-03-23T13:12:54.321Z,99.4
2023-03-23T13:14:53.870Z,99.4
2023-03-23T13:16:53.364Z,99.5
2023-03-23T13:20:52.396Z,99.8
2023-03-23T13:22:55.353Z,99.2
2023-03-23T13:26:54.368Z,88.9
2023-03-23T13:27:55.856Z,89.4
2023-03-23T13:33:54.303Z,83.2
2023-03-23T13:37:56.680Z,83.2
2023-03-23T13:39:56.088Z,80.5
2023-03-23T13:43:55.073Z,73.7
2023-03-23T13:45:54.560Z,74
2023-03-23T13:47:54.018Z,74.1
2023-03-23T13:49:56.816Z,72.7
2023-03-23T13:51:56.274Z,72.4
2023-03-23T13:57:54.547Z,73.4
2023-03-23T13:59:54.015Z,76.8
2023-03-23T14:05:55.581Z,83.2
2023-03-23T14:07:54.964Z,84.1
2023-03-23T14:11:53.976Z,85.5
2023-03-23T14:13:53.408Z,85.6
2023-03-23T14:15:52.896Z,86
2023-03-23T14:17:55.719Z,86.3
2023-03-23T14:19:55.214Z,86.4
2023-03-23T14:28:55.941Z,86.4
2023-03-23T14:30:57.661Z,86.4
2023-03-23T14:32:57.168Z,86.6
2023-03-23T14:34:56.668Z,92.8
2023-03-23T14:38:55.752Z,99.2
2023-03-23T14:40:55.274Z,99.3
2023-03-23T14:44:57.779Z,99.8
2023-03-23T14:46:57.455Z,99.8
2023-03-23T14:48:56.899Z,99.9
2023-03-23T14:50:56.478Z,99.9
2023-03-23T14:52:56.049Z,99.9
2023-03-23T14:58:58.157Z,99.7
2023-03-23T15:00:57.756Z,98.3
2023-03-23T15:02:57.297Z,98.6
2023-03-23T15:04:56.877Z,97.7
2023-03-23T15:06:56.457Z,90.4
2023-03-23T15:10:57.116Z,84.4
2023-03-23T15:13:00.037Z,80.8
2023-03-23T15:14:59.565Z,79.1
2023-03-23T15:19:20.607Z,80.6
2023-03-23T15:21:20.116Z,80.7
2023-03-23T15:23:19.665Z,80.9
2023-03-23T15:25:22.608Z,84.7
2023-03-23T15:37:20.727Z,76.4
2023-03-23T15:39:22.651Z,73.8
2023-03-23T15:45:21.162Z,69.7
2023-03-23T15:55:22.068Z,73.7
2023-03-23T16:03:20.149Z,75.1
2023-03-23T16:05:19.651Z,74.9
2023-03-23T16:07:22.610Z,73.7
2023-03-23T16:11:21.638Z,73.2
2023-03-23T16:12:23.092Z,73.5
2023-03-23T16:20:24.628Z,80.2
2023-03-23T16:22:24.157Z,81.6
2023-03-23T16:26:23.753Z,82.9
2023-03-23T16:28:23.289Z,83.2
2023-03-23T16:30:22.826Z,83.9
2023-03-23T16:32:22.347Z,84.7
2023-03-23T16:34:25.280Z,86.3
2023-03-23T16:36:24.932Z,87.2
2023-03-23T16:38:24.359Z,87.4
2023-03-23T16:40:23.897Z,87.8
2023-03-23T16:42:23.455Z,88.3
2023-03-23T16:44:22.959Z,88.8
2023-03-23T16:46:22.606Z,89.2
2023-03-23T16:48:25.488Z,90.3
2023-03-23T16:50:25.014Z,90.8
2023-03-23T16:52:24.607Z,91.1
2023-03-23T16:54:24.155Z,91.4
2023-03-23T16:56:23.680Z,91.7
2023-03-23T17:02:25.916Z,92.8
2023-03-23T17:04:25.353Z,93
2023-03-23T17:06:24.929Z,93.2
2023-03-23T17:11:25.530Z,93.8
2023-03-23T17:13:25.145Z,93.9
2023-03-23T17:15:28.089Z,94.5
2023-03-23T17:17:27.751Z,94.9
2023-03-23T17:19:27.226Z,95.4
2023-03-23T17:21:26.777Z,95.8
2023-03-23T17:23:26.371Z,96.1
2023-03-23T17:25:25.951Z,96.5
2023-03-23T17:27:26.229Z,96.9
2023-03-23T17:29:28.492Z,97.5
2023-03-23T17:31:28.104Z,97.8
2023-03-23T17:33:27.654Z,98.2
2023-03-23T17:35:27.217Z,98.5
2023-03-23T17:37:26.962Z,98.7
2023-03-23T17:41:25.984Z,99.2
2023-03-23T17:43:28.958Z,99.6
2023-03-23T17:47:28.146Z,99.8
2023-03-23T17:49:27.732Z,99.9
2023-03-23T17:51:27.330Z,99.8
2023-03-23T17:53:26.900Z,99.8
2023-03-23T17:55:26.476Z,99.8
2023-03-23T17:57:29.518Z,99.8
2023-03-23T18:01:28.700Z,99.8
2023-03-23T18:02:30.270Z,99.9
2023-03-23T18:08:28.965Z,99.9
2023-03-23T18:10:31.984Z,99.9
2023-03-23T18:12:31.587Z,99.9
2023-03-23T18:20:29.966Z,99.9
2023-03-23T18:26:32.129Z,99.9
2023-03-23T18:30:31.297Z,99.9
2023-03-23T18:32:30.920Z,99.9
2023-03-23T18:34:30.445Z,99.9
2023-03-23T18:36:30.079Z,99.9
2023-03-23T18:38:33.031Z,99.9
2023-03-23T18:42:32.182Z,99.9
2023-03-23T18:44:31.741Z,99.9
2023-03-23T18:46:31.354Z,99.9
2023-03-23T18:50:30.496Z,99.9
2023-03-23T18:52:33.484Z,99.9
2023-03-23T18:56:32.691Z,99.9
2023-03-23T18:58:54.055Z,99.9
2023-03-23T19:00:53.960Z,99.9
2023-03-23T19:02:53.361Z,99.9
2023-03-23T19:08:55.357Z,99.9
2023-03-23T19:10:54.908Z,99.9
2023-03-23T19:12:54.515Z,99.9
2023-03-23T19:18:56.670Z,99.9
2023-03-23T19:21:13.322Z,99.9
2023-03-23T19:22:55.840Z,99.9
2023-03-23T19:29:23.786Z,99.9
2023-03-23T19:32:57.304Z,99.9
2023-03-23T19:34:56.815Z,99.9
2023-03-23T19:38:56.041Z,99.9
2023-03-23T19:42:55.443Z,99.9
2023-03-23T19:50:57.107Z,99.9
2023-03-23T19:52:06.533Z,99.9
2023-03-23T19:53:58.244Z,99.9
2023-03-23T19:57:57.425Z,99.9
2023-03-23T20:02:00.096Z,99.9
2023-03-23T20:04:00.098Z,99.9
2023-03-23T20:05:59.297Z,99.9
2023-03-23T20:07:58.892Z,99.9
2023-03-23T20:09:59.113Z,99.9
2023-03-23T20:14:01.175Z,99.9
2023-03-23T20:18:00.520Z,99.9
2023-03-23T20:20:00.169Z,99.9
2023-03-23T20:23:59.395Z,99.9
2023-03-23T20:28:02.114Z,99.9
2023-03-23T20:32:01.383Z,99.9
2023-03-23T20:34:02.028Z,99.9
2023-03-23T20:36:00.690Z,99.9
2023-03-23T20:38:00.297Z,99.9
2023-03-23T20:44:02.632Z,99.9
2023-03-23T20:46:02.262Z,99.9
2023-03-23T20:47:03.766Z,99.9
2023-03-23T20:49:03.497Z,99.9
2023-03-23T20:51:03.078Z,99.9
2023-03-23T20:53:04.309Z,99.9
2023-03-23T20:57:06.999Z,99.9
2023-03-23T21:03:05.871Z,99.9
2023-03-23T21:09:08.250Z,99.9
2023-03-23T21:11:07.865Z,99.9
2023-03-23T21:13:07.527Z,99.9
2023-03-23T21:17:06.829Z,99.9
2023-03-23T21:21:07.194Z,99.9
2023-03-23T21:23:09.142Z,99.9
2023-03-23T21:31:07.724Z,99.9
2023-03-23T21:33:08.419Z,99.9
2023-03-23T21:35:07.040Z,99.9
2023-03-23T21:37:10.067Z,99.9
2023-03-23T21:39:09.750Z,99.9
2023-03-23T21:41:09.377Z,99.9
2023-03-23T21:42:10.890Z,99.9
2023-03-23T21:44:10.582Z,99.9
2023-03-23T21:46:10.239Z,99.9
2023-03-23T21:48:09.985Z,99.9
2023-03-23T21:50:12.978Z,99.9
2023-03-23T21:52:12.578Z,99.9
2023-03-23T21:54:12.251Z,99.9
2023-03-23T21:56:11.916Z,99.9
2023-03-23T21:58:11.540Z,99.9
2023-03-23T22:00:11.221Z,99.9
2023-03-23T22:04:13.925Z,99.9
2023-03-23T22:06:13.548Z,99.9
2023-03-23T22:08:13.196Z,99.9
2023-03-23T22:10:12.868Z,99.9
2023-03-23T22:12:12.514Z,99.9
2023-03-23T22:14:12.175Z,99.9
2023-03-23T22:16:11.849Z,99.9
2023-03-23T22:18:14.868Z,99.9
2023-03-23T22:22:14.152Z,99.9
2023-03-23T22:26:13.428Z,99.9
2023-03-23T22:28:13.139Z,99.9
2023-03-23T22:30:12.805Z,99.9
2023-03-23T22:32:15.860Z,99.9
2023-03-23T22:34:15.512Z,99.9
2023-03-23T22:40:29.950Z,99.9
2023-03-23T22:42:29.592Z,99.9
2023-03-23T22:44:32.627Z,99.9
2023-03-23T22:46:32.285Z,99.9
2023-03-23T22:54:30.907Z,99.9
2023-03-23T23:02:32.952Z,99.9
2023-03-23T23:04:32.681Z,99.9
2023-03-23T23:06:32.274Z,99.9
2023-03-23T23:10:31.621Z,99.9
2023-03-23T23:12:34.720Z,99.9
2023-03-23T23:16:34.022Z,99.9
2023-03-23T23:20:33.290Z,99.9
2023-03-23T23:28:35.320Z,99.9
2023-03-23T23:30:35.097Z,99.9
2023-03-23T23:31:36.543Z,99.9
2023-03-23T23:33:36.200Z,99.9
2023-03-23T23:35:35.907Z,99.9
2023-03-23T23:37:35.545Z,99.9
2023-03-23T23:39:38.644Z,99.9
2023-03-23T23:43:37.929Z,99.9
2023-03-23T23:51:36.545Z,99.9
2023-03-23T23:53:39.607Z,99.9
2023-03-23T23:55:39.315Z,99.9
2023-03-23T23:57:38.928Z,99.9
2023-03-23T23:59:38.584Z,99.9
